Time;durP1;ratioP1;P1;durP2;ratioP2;P2;SDS_P1;SDS_P2;PMS_P1;PMS_P2;Temp;Humidity;BMP_temperature;BMP_pressure;BME280_temperature;BME280_humidity;BME280_pressure;Samples;Min_cycle;Max_cycle;Signal;HPM_P1;HPM_P2
2023/03/12 00:01:39;;;;;;;8.55;6.65;;;10.50;97.10;;;;;;4975622;28;20031;-53
2023/03/12 00:04:05;;;;;;;9.63;7.10;;;10.50;97.20;;;;;;4975746;28;20106;-54
2023/03/12 00:06:31;;;;;;;8.73;6.70;;;10.40;97.10;;;;;;4974645;28;20122;-60
2023/03/12 00:08:58;;;;;;;8.77;6.95;;;10.50;97.20;;;;;;4975403;28;20452;-59
2023/03/12 00:11:23;;;;;;;7.68;6.43;;;10.40;97.10;;;;;;4973841;28;20114;-58
2023/03/12 00:13:51;;;;;;;9.23;7.20;;;10.40;97.30;;;;;;4972330;28;20109;-58
2023/03/12 00:16:17;;;;;;;8.95;6.72;;;10.40;97.20;;;;;;4974853;28;20101;-60
2023/03/12 00:18:46;;;;;;;8.68;6.75;;;10.50;97.10;;;;;;4968790;28;20078;-60
2023/03/12 00:21:11;;;;;;;8.38;6.50;;;10.40;97.00;;;;;;4970756;28;20059;-60
2023/03/12 00:23:37;;;;;;;8.40;7.45;;;10.50;96.90;;;;;;4974912;28;20074;-60
2023/03/12 00:26:09;;;;;;;7.50;6.68;;;10.50;96.90;;;;;;4974647;28;20106;-62
2023/03/12 00:28:34;;;;;;;6.93;6.22;;;10.40;96.80;;;;;;4969039;28;20442;-62
2023/03/12 00:31:13;;;;;;;7.75;6.40;;;10.40;96.70;;;;;;4974576;28;20042;-62
2023/03/12 00:33:39;;;;;;;7.47;6.15;;;10.40;96.60;;;;;;4975538;28;20038;-60
2023/03/12 00:36:05;;;;;;;7.47;5.70;;;10.30;96.60;;;;;;4977264;28;20390;-61
2023/03/12 00:38:31;;;;;;;7.82;5.68;;;10.30;96.50;;;;;;4974334;28;20482;-62
2023/03/12 00:40:56;;;;;;;8.00;5.95;;;10.30;96.20;;;;;;4974692;28;20081;-61
2023/03/12 00:43:22;;;;;;;6.53;5.43;;;10.20;96.00;;;;;;4974966;28;20038;-61
2023/03/12 00:45:47;;;;;;;6.25;5.20;;;10.20;95.80;;;;;;4974762;28;20113;-61
2023/03/12 00:48:13;;;;;;;7.43;5.35;;;10.20;95.80;;;;;;4983783;28;20035;-62
2023/03/12 00:50:39;;;;;;;5.97;4.57;;;10.10;95.70;;;;;;4974002;28;20035;-62
2023/03/12 00:53:04;;;;;;;5.75;4.60;;;10.10;95.60;;;;;;4974570;28;20027;-62
2023/03/12 00:55:30;;;;;;;5.40;4.57;;;10.00;95.60;;;;;;4977767;28;20505;-61
2023/03/12 00:57:55;;;;;;;6.13;4.68;;;10.00;95.60;;;;;;4979126;28;20148;-61
2023/03/12 01:00:21;;;;;;;5.60;4.30;;;9.90;95.70;;;;;;4974337;28;20361;-61
2023/03/12 01:02:47;;;;;;;4.90;4.22;;;9.90;95.80;;;;;;4974446;28;20026;-61
2023/03/12 01:05:13;;;;;;;6.20;4.70;;;9.90;95.80;;;;;;4974416;28;20022;-61
2023/03/12 01:07:39;;;;;;;5.15;4.07;;;9.90;95.90;;;;;;4974409;28;20066;-61
2023/03/12 01:10:05;;;;;;;5.57;4.25;;;9.90;95.50;;;;;;4973269;28;20105;-61
2023/03/12 01:12:31;;;;;;;5.50;4.40;;;9.80;95.10;;;;;;4974111;28;20037;-61
2023/03/12 01:14:57;;;;;;;5.18;4.43;;;9.70;94.90;;;;;;4974119;28;20042;-61
2023/03/12 01:17:23;;;;;;;5.53;4.28;;;9.70;94.80;;;;;;4974150;28;20454;-61
2023/03/12 01:19:48;;;;;;;6.18;4.93;;;9.60;94.70;;;;;;4973936;28;20043;-61
2023/03/12 01:22:14;;;;;;;6.43;4.90;;;9.50;94.60;;;;;;4973805;28;20021;-60
2023/03/12 01:24:40;;;;;;;4.72;3.90;;;9.50;94.70;;;;;;4973678;28;20422;-60
2023/03/12 01:27:05;;;;;;;5.32;4.60;;;9.40;94.90;;;;;;4974258;28;20031;-63
2023/03/12 01:29:31;;;;;;;5.18;4.47;;;9.40;94.90;;;;;;4973127;28;20362;-62
2023/03/12 01:31:57;;;;;;;5.78;4.63;;;9.40;94.70;;;;;;4974093;28;20026;-64
2023/03/12 01:34:22;;;;;;;5.90;4.38;;;9.40;94.70;;;;;;4973581;28;20031;-63
2023/03/12 01:36:48;;;;;;;6.18;5.03;;;9.30;94.40;;;;;;4974054;28;20066;-49
2023/03/12 01:39:13;;;;;;;6.85;5.45;;;9.30;94.20;;;;;;4973083;28;20035;-48
2023/03/12 01:41:40;;;;;;;6.43;4.90;;;9.20;94.10;;;;;;4972952;28;20370;-62
2023/03/12 01:44:06;;;;;;;6.75;5.53;;;9.20;94.20;;;;;;4973912;28;20078;-64
2023/03/12 01:46:37;;;;;;;6.45;4.95;;;9.10;94.10;;;;;;4977202;28;20464;-62
2023/03/12 01:49:12;;;;;;;6.65;5.65;;;9.10;94.10;;;;;;4972303;28;20027;-63
2023/03/12 01:51:43;;;;;;;6.40;5.60;;;9.00;94.00;;;;;;4970286;28;20113;-63
2023/03/12 01:54:36;;;;;;;7.15;5.65;;;9.00;94.10;;;;;;4973064;28;20019;-62
2023/03/12 01:57:05;;;;;;;7.72;6.00;;;8.90;93.80;;;;;;4968286;28;20042;-61
2023/03/12 01:59:37;;;;;;;7.13;5.63;;;8.90;94.20;;;;;;4981367;28;20043;-61
2023/03/12 02:02:04;;;;;;;7.28;6.07;;;8.80;94.20;;;;;;4973017;28;20474;-61
2023/03/12 02:04:32;;;;;;;7.70;5.93;;;8.80;94.40;;;;;;4972400;28;20415;-61
2023/03/12 02:07:04;;;;;;;7.65;6.53;;;8.80;94.50;;;;;;4970975;28;20413;-53
2023/03/12 02:09:33;;;;;;;8.52;6.68;;;8.70;94.50;;;;;;4962672;28;20031;-50
2023/03/12 02:11:59;;;;;;;8.40;7.18;;;8.70;94.60;;;;;;4972815;28;20125;-49
2023/03/12 02:14:25;;;;;;;10.27;7.50;;;8.70;94.40;;;;;;4973360;28;20107;-50
2023/03/12 02:16:52;;;;;;;8.98;6.75;;;8.60;94.40;;;;;;4972225;28;20082;-51
2023/03/12 02:19:30;;;;;;;8.23;7.03;;;8.60;94.40;;;;;;4973192;28;20035;-49
2023/03/12 02:21:57;;;;;;;8.65;6.88;;;8.60;94.30;;;;;;4973491;28;20030;-60
2023/03/12 02:24:35;;;;;;;9.10;7.63;;;8.60;94.20;;;;;;4972829;28;20077;-61
2023/03/12 02:27:02;;;;;;;9.50;7.78;;;8.50;93.50;;;;;;4962249;28;20417;-61
2023/03/12 02:29:30;;;;;;;8.93;6.78;;;8.40;93.20;;;;;;4971768;28;20462;-60
2023/03/12 02:31:59;;;;;;;8.50;7.18;;;8.40;93.20;;;;;;4972916;28;20062;-60
2023/03/12 02:34:25;;;;;;;8.32;6.78;;;8.30;93.20;;;;;;4979692;28;20030;-60
2023/03/12 02:36:51;;;;;;;8.70;7.50;;;8.30;93.00;;;;;;4977870;28;20557;-58
2023/03/12 02:39:18;;;;;;;8.18;6.93;;;8.20;92.70;;;;;;4972795;28;20065;-57
2023/03/12 02:41:49;;;;;;;7.97;6.65;;;8.10;92.70;;;;;;4972529;28;20385;-58
2023/03/12 02:44:23;;;;;;;;;;;8.10;92.80;;;;;;4974006;28;20027;-58
2023/03/12 02:46:54;;;;;;;7.32;6.30;;;8.00;92.50;;;;;;4977065;28;19906;-58
2023/03/12 02:49:21;;;;;;;;;;;8.00;92.90;;;;;;4973572;28;20050;-58
2023/03/12 02:51:47;;;;;;;7.78;6.50;;;7.90;92.50;;;;;;4972436;28;19916;-58
2023/03/12 02:54:14;;;;;;;7.53;6.60;;;7.90;92.70;;;;;;4965845;28;20027;-58
2023/03/12 02:56:40;;;;;;;7.80;6.40;;;7.90;92.60;;;;;;4986416;28;20037;-58
2023/03/12 02:59:07;;;;;;;8.07;6.32;;;7.90;92.70;;;;;;4976862;28;20390;-58
2023/03/12 03:01:33;;;;;;;6.68;5.97;;;7.90;92.60;;;;;;4976519;28;20039;-57
2023/03/12 03:04:00;;;;;;;7.05;6.20;;;7.90;92.60;;;;;;4975305;28;20026;-58
2023/03/12 03:06:26;;;;;;;6.80;6.05;;;7.90;92.40;;;;;;4976340;28;20027;-58
2023/03/12 03:08:51;;;;;;;8.85;6.85;;;7.90;92.20;;;;;;4976417;28;20042;-58
2023/03/12 03:11:18;;;;;;;6.53;5.80;;;7.90;92.00;;;;;;4976445;28;20030;-57
2023/03/12 03:13:44;;;;;;;7.65;5.95;;;7.80;92.00;;;;;;4976624;28;20066;-52
2023/03/12 03:16:11;;;;;;;5.82;5.22;;;7.80;92.00;;;;;;4976542;28;20030;-54
2023/03/12 03:18:37;;;;;;;7.55;5.95;;;7.80;92.00;;;;;;4975540;28;20078;-57
2023/03/12 03:21:06;;;;;;;7.47;5.80;;;7.80;92.10;;;;;;4975920;28;20047;-53
2023/03/12 03:23:33;;;;;;;6.65;5.60;;;7.80;92.10;;;;;;4975838;28;20055;-55
2023/03/12 03:26:02;;;;;;;6.38;5.57;;;7.90;92.10;;;;;;4976326;28;20459;-60
2023/03/12 03:28:29;;;;;;;6.93;5.18;;;7.90;92.30;;;;;;4976221;28;20039;-61
2023/03/12 03:31:00;;;;;;;6.55;5.40;;;7.90;92.30;;;;;;4975547;28;20059;-61
2023/03/12 03:33:28;;;;;;;6.15;4.93;;;7.90;92.00;;;;;;4976274;28;20031;-60
2023/03/12 03:35:54;;;;;;;6.18;5.25;;;7.90;91.70;;;;;;4987747;28;20037;-61
2023/03/12 03:38:21;;;;;;;6.78;5.47;;;7.90;91.60;;;;;;4975739;28;20051;-61
2023/03/12 03:40:46;;;;;;;6.15;5.13;;;7.90;91.50;;;;;;4976040;28;20071;-61
2023/03/12 03:43:12;;;;;;;5.57;4.88;;;7.90;91.40;;;;;;4975895;28;20027;-60
2023/03/12 03:45:38;;;;;;;6.90;5.50;;;7.90;91.30;;;;;;4975672;28;20077;-61
2023/03/12 03:48:04;;;;;;;6.78;5.40;;;7.80;91.10;;;;;;4979296;28;20098;-61
2023/03/12 03:50:29;;;;;;;6.65;5.20;;;7.80;91.20;;;;;;4971140;28;20355;-61
2023/03/12 03:52:55;;;;;;;5.75;4.65;;;7.80;91.30;;;;;;4975366;28;20067;-61
2023/03/12 03:55:21;;;;;;;5.97;5.00;;;7.80;91.30;;;;;;4978277;28;20113;-61
2023/03/12 03:57:47;;;;;;;6.70;4.97;;;7.80;91.50;;;;;;4981931;28;20410;-61
2023/03/12 04:00:16;;;;;;;5.90;5.13;;;7.80;91.40;;;;;;4975350;28;20031;-61
2023/03/12 04:02:43;;;;;;;6.45;5.22;;;7.70;90.70;;;;;;4974970;28;20122;-61
2023/03/12 04:05:09;;;;;;;5.22;4.45;;;7.60;90.10;;;;;;4974400;28;20450;-61
2023/03/12 04:07:35;;;;;;;5.32;4.20;;;7.50;90.00;;;;;;4975290;28;20077;-61
2023/03/12 04:10:03;;;;;;;4.85;3.90;;;7.40;90.10;;;;;;4975356;28;20034;-61
2023/03/12 04:12:28;;;;;;;4.03;3.60;;;7.40;90.10;;;;;;4974952;28;20034;-61
2023/03/12 04:14:55;;;;;;;3.50;3.20;;;7.30;89.70;;;;;;4975665;28;20042;-61
2023/03/12 04:17:21;;;;;;;3.35;3.05;;;7.20;89.40;;;;;;4975943;28;20038;-48
2023/03/12 04:19:46;;;;;;;3.08;2.85;;;7.10;88.80;;;;;;4973792;28;20101;-52
2023/03/12 04:22:12;;;;;;;3.25;2.95;;;7.10;88.90;;;;;;4974975;28;20366;-49
2023/03/12 04:24:37;;;;;;;3.67;2.90;;;7.00;88.80;;;;;;4974734;28;20494;-52
2023/03/12 04:27:03;;;;;;;3.20;2.90;;;7.00;88.80;;;;;;4975331;28;20038;-51
2023/03/12 04:29:29;;;;;;;2.83;2.58;;;6.90;88.10;;;;;;4975014;28;20043;-50
2023/03/12 04:31:55;;;;;;;3.15;2.70;;;6.90;88.10;;;;;;4974655;28;20034;-50
2023/03/12 04:34:20;;;;;;;2.50;2.30;;;6.90;87.80;;;;;;4981653;28;20038;-48
2023/03/12 04:36:46;;;;;;;2.05;1.95;;;6.80;87.00;;;;;;4975615;28;20440;-54
2023/03/12 04:39:15;;;;;;;2.53;2.33;;;6.80;87.10;;;;;;4974747;28;20026;-49
2023/03/12 04:41:40;;;;;;;2.85;2.65;;;6.80;87.30;;;;;;4975333;28;20038;-50
2023/03/12 04:44:06;;;;;;;2.92;2.60;;;6.80;87.30;;;;;;4975005;28;20053;-53
2023/03/12 04:46:32;;;;;;;2.50;2.30;;;6.70;86.70;;;;;;4979814;28;20113;-56
2023/03/12 04:49:01;;;;;;;2.60;2.40;;;6.60;85.80;;;;;;4974251;28;20501;-51
2023/03/12 04:51:27;;;;;;;2.83;2.47;;;6.60;85.70;;;;;;4974391;28;20050;-52
2023/03/12 04:53:52;;;;;;;2.17;2.08;;;6.50;85.50;;;;;;4974332;28;20034;-53
2023/03/12 04:56:18;;;;;;;2.60;2.40;;;6.40;85.70;;;;;;4976483;28;20438;-50
2023/03/12 04:58:44;;;;;;;2.60;2.40;;;6.30;85.80;;;;;;4980463;28;20394;-52
2023/03/12 05:01:25;;;;;;;2.40;2.20;;;6.20;85.30;;;;;;4974276;28;20377;-53
2023/03/12 05:03:51;;;;;;;2.13;1.98;;;6.20;85.00;;;;;;4972793;28;20066;-56
2023/03/12 05:06:17;;;;;;;2.25;2.05;;;6.10;85.70;;;;;;4974621;28;20030;-60
2023/03/12 05:08:43;;;;;;;2.30;2.10;;;6.00;86.00;;;;;;4974323;28;20482;-60
2023/03/12 05:11:08;;;;;;;2.55;2.35;;;6.00;86.00;;;;;;4974494;28;20023;-60
2023/03/12 05:13:34;;;;;;;2.65;2.45;;;6.00;85.60;;;;;;4973735;28;20023;-60
2023/03/12 05:16:00;;;;;;;2.45;2.20;;;5.90;85.80;;;;;;4972983;28;20019;-59
2023/03/12 05:18:25;;;;;;;2.50;2.30;;;5.90;85.50;;;;;;4972776;28;20047;-61
2023/03/12 05:20:59;;;;;;;2.50;2.30;;;5.90;85.60;;;;;;4970472;28;20034;-60
2023/03/12 05:23:25;;;;;;;2.40;2.20;;;5.80;85.10;;;;;;4965149;28;20042;-60
2023/03/12 05:25:50;;;;;;;2.47;2.28;;;5.70;85.30;;;;;;4973830;28;20089;-60
2023/03/12 05:28:16;;;;;;;2.78;2.45;;;5.70;85.10;;;;;;4974056;28;20085;-60
2023/03/12 05:30:41;;;;;;;2.80;2.50;;;5.70;85.30;;;;;;4973866;28;20033;-63
2023/03/12 05:33:07;;;;;;;3.08;2.80;;;5.70;85.50;;;;;;4973437;28;20489;-65
2023/03/12 05:35:32;;;;;;;2.85;2.53;;;5.60;85.30;;;;;;4974290;28;20535;-60
2023/03/12 05:37:58;;;;;;;2.72;2.40;;;5.60;85.20;;;;;;4973953;28;20023;-60
2023/03/12 05:40:24;;;;;;;2.85;2.65;;;5.60;85.60;;;;;;4973206;28;20035;-60
2023/03/12 05:42:49;;;;;;;3.75;2.60;;;5.50;85.10;;;;;;4973764;28;20033;-59
2023/03/12 05:45:15;;;;;;;3.25;2.90;;;5.50;85.30;;;;;;4973575;28;20501;-60
2023/03/12 05:47:40;;;;;;;3.10;2.80;;;5.50;84.90;;;;;;4978862;28;20027;-59
2023/03/12 05:50:08;;;;;;;2.95;2.60;;;5.40;84.50;;;;;;4970349;28;20035;-60
2023/03/12 05:52:34;;;;;;;3.80;2.70;;;5.30;84.80;;;;;;4973592;28;20022;-60
2023/03/12 05:54:59;;;;;;;3.17;2.58;;;5.20;85.20;;;;;;4967362;28;20412;-60
2023/03/12 05:57:25;;;;;;;3.25;2.72;;;5.20;85.80;;;;;;4977214;28;20109;-51
2023/03/12 05:59:50;;;;;;;3.25;2.80;;;5.20;85.80;;;;;;4973438;28;20034;-50
2023/03/12 06:02:16;;;;;;;3.55;2.97;;;5.30;86.10;;;;;;4973340;28;20055;-53
2023/03/12 06:04:42;;;;;;;3.47;2.78;;;5.20;85.80;;;;;;4972336;28;20086;-53
2023/03/12 06:07:07;;;;;;;3.00;2.65;;;5.20;86.10;;;;;;4973808;28;20397;-65
2023/03/12 06:09:34;;;;;;;3.45;2.72;;;5.20;86.20;;;;;;4973122;28;20062;-64
2023/03/12 06:11:59;;;;;;;4.03;2.63;;;5.30;86.80;;;;;;4973411;28;20093;-66
2023/03/12 06:14:25;;;;;;;3.33;2.53;;;5.40;87.00;;;;;;4972658;28;20031;-66
2023/03/12 06:16:51;;;;;;;3.00;2.70;;;5.50;86.60;;;;;;4973279;28;20593;-66
2023/03/12 06:19:16;;;;;;;2.78;2.53;;;5.50;85.90;;;;;;4972097;28;20066;-64
2023/03/12 06:21:42;;;;;;;3.58;2.63;;;5.50;85.40;;;;;;4972472;28;20055;-66
2023/03/12 06:24:08;;;;;;;2.75;2.55;;;5.50;85.60;;;;;;4973050;28;20098;-65
2023/03/12 06:26:34;;;;;;;2.70;2.42;;;5.40;85.20;;;;;;4973333;28;20031;-57
2023/03/12 06:28:59;;;;;;;2.58;2.38;;;5.30;85.40;;;;;;4972309;28;20031;-54
2023/03/12 06:31:25;;;;;;;3.20;2.70;;;5.20;85.50;;;;;;4972372;28;20086;-61
2023/03/12 06:33:52;;;;;;;3.75;2.78;;;5.20;85.80;;;;;;4962521;28;20026;-61
2023/03/12 06:36:18;;;;;;;3.33;2.80;;;5.20;86.10;;;;;;4972391;28;20377;-61
2023/03/12 06:38:44;;;;;;;3.20;2.80;;;5.10;86.30;;;;;;4972609;28;20027;-61
2023/03/12 06:41:13;;;;;;;3.25;2.95;;;5.10;86.40;;;;;;4972804;28;20085;-61
2023/03/12 06:43:40;;;;;;;3.35;3.03;;;5.10;86.40;;;;;;4972987;28;20037;-61
2023/03/12 06:46:07;;;;;;;3.25;2.83;;;5.00;86.50;;;;;;4974536;28;20042;-54
2023/03/12 06:48:35;;;;;;;2.90;2.70;;;5.00;86.60;;;;;;4971889;28;20385;-54
2023/03/12 06:51:04;;;;;;;2.92;2.47;;;4.90;86.70;;;;;;4972365;28;20031;-58
2023/03/12 06:53:31;;;;;;;2.78;2.50;;;4.90;86.40;;;;;;4972485;28;20426;-58
2023/03/12 06:55:57;;;;;;;2.65;2.45;;;4.80;86.40;;;;;;4972908;28;20033;-61
2023/03/12 06:58:22;;;;;;;2.13;2.03;;;4.60;86.50;;;;;;4979507;28;20404;-61
2023/03/12 07:00:48;;;;;;;2.20;2.10;;;4.50;87.30;;;;;;4972626;28;20508;-60
2023/03/12 07:03:14;;;;;;;2.17;2.08;;;4.40;87.90;;;;;;4971795;28;20062;-61
2023/03/12 07:05:43;;;;;;;2.13;2.03;;;4.30;88.70;;;;;;4973175;28;20454;-59
2023/03/12 07:08:09;;;;;;;2.00;1.90;;;4.30;89.40;;;;;;4973046;28;20099;-60
2023/03/12 07:10:35;;;;;;;2.00;1.90;;;4.30;89.60;;;;;;4972463;28;20039;-64
2023/03/12 07:13:00;;;;;;;2.00;1.90;;;4.30;89.80;;;;;;4963984;28;20030;-64
2023/03/12 07:15:26;;;;;;;2.25;2.15;;;4.30;89.90;;;;;;4973405;28;20034;-61
2023/03/12 07:17:52;;;;;;;2.20;2.10;;;4.30;89.90;;;;;;4964371;28;20035;-63
2023/03/12 07:20:17;;;;;;;2.10;2.00;;;4.30;89.90;;;;;;4972359;28;20034;-62
2023/03/12 07:22:43;;;;;;;2.50;2.30;;;4.30;89.80;;;;;;4972322;28;20048;-62
2023/03/12 07:25:10;;;;;;;2.53;2.33;;;4.30;89.40;;;;;;4972558;28;20035;-62
2023/03/12 07:27:35;;;;;;;3.03;2.60;;;4.30;89.00;;;;;;4972851;28;20101;-62
2023/03/12 07:30:01;;;;;;;3.05;2.85;;;4.30;89.10;;;;;;4967113;28;20031;-62
2023/03/12 07:32:27;;;;;;;3.55;3.22;;;4.30;88.90;;;;;;4972610;28;20097;-62
2023/03/12 07:34:53;;;;;;;3.42;3.13;;;4.20;88.40;;;;;;4983262;28;20449;-62
2023/03/12 07:37:18;;;;;;;3.58;3.03;;;4.20;88.40;;;;;;4973685;28;20018;-55
2023/03/12 07:39:44;;;;;;;3.65;3.25;;;4.20;88.70;;;;;;4973313;28;20038;-56
2023/03/12 07:42:11;;;;;;;4.88;3.83;;;4.20;89.20;;;;;;4974511;28;20114;-57
2023/03/12 07:44:37;;;;;;;4.22;3.75;;;4.20;89.10;;;;;;4976052;28;20042;-55
2023/03/12 07:47:03;;;;;;;4.22;3.83;;;4.30;89.30;;;;;;4980972;28;20026;-58
2023/03/12 07:49:29;;;;;;;4.18;3.65;;;4.30;88.80;;;;;;4971179;28;20041;-59
2023/03/12 07:51:54;;;;;;;4.35;3.58;;;4.30;88.70;;;;;;4975499;28;20114;-57
2023/03/12 07:54:24;;;;;;;11.82;8.55;;;4.30;88.80;;;;;;4975544;28;20030;-58
2023/03/12 07:56:49;;;;;;;5.13;4.60;;;4.30;88.60;;;;;;4975804;28;20027;-54
2023/03/12 07:59:15;;;;;;;6.85;4.50;;;4.30;88.10;;;;;;4981765;28;20074;-52
2023/03/12 08:01:41;;;;;;;4.28;3.88;;;4.30;89.00;;;;;;4974651;28;20065;-58
2023/03/12 08:04:06;;;;;;;4.53;4.13;;;4.20;88.00;;;;;;4974803;28;20382;-57
2023/03/12 08:06:32;;;;;;;4.22;3.63;;;4.10;87.80;;;;;;4975440;28;20041;-65
2023/03/12 08:08:58;;;;;;;4.43;3.92;;;4.10;88.00;;;;;;4975445;28;20362;-63
2023/03/12 08:11:23;;;;;;;4.07;3.67;;;4.00;87.90;;;;;;4975169;28;20030;-58
2023/03/12 08:13:49;;;;;;;4.25;3.85;;;4.00;88.10;;;;;;4974823;28;20023;-58
2023/03/12 08:16:15;;;;;;;4.28;3.58;;;4.00;88.00;;;;;;4973612;28;20042;-66
2023/03/12 08:18:41;;;;;;;4.40;3.78;;;3.90;88.50;;;;;;4974058;28;20885;-64
2023/03/12 08:21:07;;;;;;;5.20;3.97;;;4.00;88.80;;;;;;4974385;28;20668;-61
2023/03/12 08:23:34;;;;;;;4.43;3.92;;;4.00;88.90;;;;;;4974152;28;20046;-61
2023/03/12 08:26:00;;;;;;;3.78;3.38;;;4.00;88.50;;;;;;4973959;28;20030;-63
2023/03/12 08:28:25;;;;;;;3.83;3.45;;;4.10;88.70;;;;;;4975063;28;20133;-62
2023/03/12 08:30:53;;;;;;;4.40;3.67;;;4.10;88.20;;;;;;4974581;28;20027;-61
2023/03/12 08:33:20;;;;;;;4.10;3.58;;;4.10;87.90;;;;;;4974697;28;20109;-61
2023/03/12 08:35:45;;;;;;;3.50;3.20;;;4.10;87.80;;;;;;4985914;28;20375;-56
2023/03/12 08:38:11;;;;;;;3.67;3.35;;;4.10;88.00;;;;;;4974314;28;20022;-55
2023/03/12 08:40:37;;;;;;;3.67;3.30;;;4.10;88.00;;;;;;4974755;28;20038;-56
2023/03/12 08:43:03;;;;;;;5.28;3.70;;;4.10;88.10;;;;;;4974448;28;20027;-56
2023/03/12 08:45:30;;;;;;;4.57;3.70;;;4.10;87.90;;;;;;4973279;28;20039;-51
2023/03/12 08:47:55;;;;;;;4.47;3.83;;;4.10;87.80;;;;;;4973797;28;20035;-54
2023/03/12 08:50:21;;;;;;;3.75;3.40;;;4.10;87.80;;;;;;4974566;28;20129;-51
2023/03/12 08:52:48;;;;;;;3.67;3.10;;;4.10;88.10;;;;;;4974565;28;20410;-51
2023/03/12 08:55:13;;;;;;;3.83;3.13;;;4.10;88.00;;;;;;4970164;28;20023;-48
2023/03/12 08:57:39;;;;;;;3.47;3.00;;;4.10;88.10;;;;;;4971984;28;20335;-50
2023/03/12 09:00:10;;;;;;;2.95;2.75;;;4.10;88.40;;;;;;4974492;28;20035;-48
2023/03/12 09:02:36;;;;;;;3.30;3.00;;;4.10;88.50;;;;;;4974438;28;20022;-53
2023/03/12 09:05:02;;;;;;;3.40;3.10;;;4.20;88.30;;;;;;4973361;28;20435;-51
2023/03/12 09:07:30;;;;;;;3.50;3.17;;;4.20;87.70;;;;;;4962271;28;20493;-51
2023/03/12 09:09:56;;;;;;;3.97;3.20;;;4.20;87.30;;;;;;4974182;28;20121;-52
2023/03/12 09:12:22;;;;;;;3.63;3.33;;;4.10;86.40;;;;;;4974521;28;20125;-60
2023/03/12 09:14:48;;;;;;;3.33;3.03;;;4.20;86.80;;;;;;4974104;28;20018;-60
2023/03/12 09:17:14;;;;;;;2.88;2.60;;;4.20;86.70;;;;;;4973535;28;20450;-60
2023/03/12 09:19:39;;;;;;;3.05;2.75;;;4.20;87.00;;;;;;4964987;28;20049;-64
2023/03/12 09:22:05;;;;;;;3.50;3.20;;;4.30;87.20;;;;;;4974203;28;20089;-57
2023/03/12 09:24:30;;;;;;;3.22;2.92;;;4.30;86.40;;;;;;4974063;28;20134;-51
2023/03/12 09:26:56;;;;;;;3.40;2.80;;;4.30;86.20;;;;;;4973966;28;20088;-50
2023/03/12 09:29:22;;;;;;;3.35;3.05;;;4.30;85.80;;;;;;4973918;28;20038;-50
2023/03/12 09:31:48;;;;;;;3.13;2.83;;;4.40;86.10;;;;;;4973351;28;20332;-64
2023/03/12 09:34:13;;;;;;;3.25;2.95;;;4.50;85.80;;;;;;4975800;28;20034;-65
2023/03/12 09:36:39;;;;;;;3.35;2.85;;;4.50;85.90;;;;;;4979411;28;20027;-58
2023/03/12 09:39:05;;;;;;;2.97;2.67;;;4.60;85.50;;;;;;4973539;28;20574;-58
2023/03/12 09:41:35;;;;;;;3.08;2.80;;;4.60;84.90;;;;;;4974111;28;20042;-63
2023/03/12 09:44:17;;;;;;;2.83;2.60;;;4.70;84.30;;;;;;4966775;28;20055;-66
2023/03/12 09:46:51;;;;;;;3.38;2.70;;;4.70;84.00;;;;;;4972793;28;20023;-65
2023/03/12 09:49:34;;;;;;;3.00;2.70;;;4.80;84.00;;;;;;4973310;28;20038;-64
2023/03/12 09:52:04;;;;;;;3.05;2.47;;;4.80;83.50;;;;;;4973625;28;20027;-48
2023/03/12 09:54:43;;;;;;;2.45;2.35;;;4.80;82.50;;;;;;4973501;28;20042;-50
2023/03/12 09:57:15;;;;;;;3.15;2.65;;;4.70;82.10;;;;;;4967194;28;20019;-62
2023/03/12 09:59:40;;;;;;;2.97;2.67;;;4.60;82.80;;;;;;4975569;28;20097;-62
2023/03/12 10:02:25;;;;;;;2.92;2.60;;;4.60;82.80;;;;;;4973067;28;20039;-62
2023/03/12 10:05:17;;;;;;;2.70;2.50;;;4.60;82.20;;;;;;4972504;28;20034;-62
2023/03/12 10:07:52;;;;;;;2.50;2.30;;;4.50;81.80;;;;;;4973091;28;20027;-62
2023/03/12 10:10:50;;;;;;;3.28;2.65;;;4.50;82.10;;;;;;4972753;28;20034;-59
2023/03/12 10:13:53;;;;;;;3.22;2.67;;;4.40;82.30;;;;;;4932934;28;20045;-47
2023/03/12 10:16:53;;;;;;;2.95;2.50;;;4.40;82.20;;;;;;4972246;28;20481;-52
2023/03/12 10:19:50;;;;;;;3.17;2.72;;;4.30;81.20;;;;;;4949412;28;20038;-51
2023/03/12 10:22:28;;;;;;;2.80;2.60;;;4.30;81.10;;;;;;4973176;28;20039;-58
2023/03/12 10:25:09;;;;;;;2.97;2.67;;;4.20;81.50;;;;;;4972418;28;20484;-58
2023/03/12 10:27:37;;;;;;;3.25;2.70;;;4.20;81.50;;;;;;4973156;28;20019;-61
2023/03/12 10:30:16;;;;;;;2.80;2.60;;;4.20;81.50;;;;;;4973183;28;20027;-61
2023/03/12 10:32:50;;;;;;;4.65;2.78;;;4.30;81.70;;;;;;4969112;28;20493;-60
2023/03/12 10:35:21;;;;;;;3.88;2.58;;;4.30;81.10;;;;;;4968308;28;20433;-60
2023/03/12 10:37:47;;;;;;;;;;;4.40;81.40;;;;;;4973339;28;20061;-60
2023/03/12 10:40:20;;;;;;;2.55;2.35;;;4.30;80.60;;;;;;4972160;28;19917;-61
2023/03/12 10:42:45;;;;;;;2.85;2.38;;;4.40;80.90;;;;;;4973166;28;20389;-60
2023/03/12 10:45:14;;;;;;;3.88;2.40;;;4.40;80.80;;;;;;4972609;28;20038;-60
2023/03/12 10:47:42;;;;;;;3.35;2.65;;;4.40;80.50;;;;;;4972464;28;20062;-61
2023/03/12 10:50:12;;;;;;;2.80;2.58;;;4.40;80.50;;;;;;4970975;28;20034;-60
2023/03/12 10:52:38;;;;;;;2.97;2.70;;;4.50;80.60;;;;;;4972903;28;20022;-60
2023/03/12 10:55:25;;;;;;;2.58;2.38;;;4.50;79.90;;;;;;4976268;28;20527;-61
2023/03/12 10:57:52;;;;;;;2.70;2.40;;;4.60;80.00;;;;;;4981859;28;20086;-61
2023/03/12 11:00:20;;;;;;;2.33;2.20;;;4.60;79.80;;;;;;4972925;28;20035;-60
2023/03/12 11:02:57;;;;;;;3.10;2.58;;;4.70;79.10;;;;;;4971264;28;20034;-59
2023/03/12 11:05:50;;;;;;;2.80;2.55;;;4.70;78.70;;;;;;4962694;28;20505;-51
2023/03/12 11:08:28;;;;;;;2.80;2.55;;;4.80;77.60;;;;;;4961304;28;20205;-55
2023/03/12 11:10:55;;;;;;;2.78;2.38;;;4.80;77.80;;;;;;4970324;28;20089;-57
2023/03/12 11:13:33;;;;;;;3.38;2.75;;;4.80;77.40;;;;;;4972834;28;20027;-58
2023/03/12 11:16:17;;;;;;;2.47;2.28;;;4.80;76.20;;;;;;4974666;28;20062;-58
2023/03/12 11:19:04;;;;;;;2.60;2.40;;;4.80;75.70;;;;;;4971984;28;20655;-59
2023/03/12 11:21:34;;;;;;;2.72;2.50;;;4.80;76.30;;;;;;4964941;28;20035;-58
2023/03/12 11:24:06;;;;;;;3.13;2.50;;;4.90;77.10;;;;;;4975093;28;20035;-58
2023/03/12 11:26:48;;;;;;;3.45;2.70;;;4.90;77.20;;;;;;4976074;28;20059;-58
2023/03/12 11:29:28;;;;;;;2.40;2.20;;;5.00;76.60;;;;;;4975556;28;20072;-58
2023/03/12 11:32:09;;;;;;;4.35;2.55;;;5.00;75.20;;;;;;4997964;28;20074;-56
2023/03/12 11:34:36;;;;;;;2.53;2.33;;;5.00;75.20;;;;;;4982824;28;20380;-53
2023/03/12 11:37:18;;;;;;;2.60;2.40;;;5.00;75.20;;;;;;4977948;28;20077;-63
2023/03/12 11:39:56;;;;;;;2.55;2.35;;;5.00;74.30;;;;;;4974049;28;20083;-63
2023/03/12 11:42:52;;;;;;;2.60;2.20;;;4.90;74.20;;;;;;4973656;28;20023;-63
2023/03/12 11:45:20;;;;;;;2.25;2.15;;;4.90;73.90;;;;;;4974062;28;20023;-63
2023/03/12 11:47:58;;;;;;;2.45;2.25;;;4.90;73.70;;;;;;4975467;28;20359;-60
2023/03/12 11:50:51;;;;;;;2.55;2.35;;;4.90;73.80;;;;;;4973891;28;20078;-61
2023/03/12 11:53:46;;;;;;;2.55;2.33;;;4.90;74.10;;;;;;4974815;28;20462;-61
2023/03/12 11:56:33;;;;;;;2.40;2.20;;;4.90;74.10;;;;;;4937190;28;20035;-60
2023/03/12 11:59:02;;;;;;;2.47;2.30;;;4.90;74.50;;;;;;4977987;28;20038;-62
2023/03/12 12:01:50;;;;;;;2.45;2.28;;;4.90;74.40;;;;;;4975685;28;20035;-62
2023/03/12 12:04:32;;;;;;;2.47;2.28;;;4.90;74.10;;;;;;4974957;28;20103;-62
2023/03/12 12:07:35;;;;;;;3.13;2.60;;;4.90;74.20;;;;;;4965157;28;20061;-61
2023/03/12 12:10:00;;;;;;;2.63;2.30;;;4.90;74.10;;;;;;4972673;28;20035;-61
2023/03/12 12:12:35;;;;;;;2.67;2.22;;;4.90;74.30;;;;;;4975367;28;20031;-51
2023/03/12 12:15:00;;;;;;;2.63;2.17;;;4.90;73.80;;;;;;4975423;28;20034;-47
2023/03/12 12:17:42;;;;;;;2.95;2.38;;;4.90;73.80;;;;;;4975359;28;20026;-58
2023/03/12 12:20:37;;;;;;;2.90;2.55;;;5.00;73.90;;;;;;4973739;28;20050;-58
2023/03/12 12:23:09;;;;;;;2.33;2.20;;;5.00;73.60;;;;;;4967088;28;20055;-49
2023/03/12 12:25:46;;;;;;;2.63;2.20;;;5.00;73.00;;;;;;4974410;28;20025;-58
2023/03/12 12:28:52;;;;;;;3.17;2.20;;;5.00;72.80;;;;;;4975421;28;20114;-59
2023/03/12 12:31:23;;;;;;;2.72;2.40;;;5.00;71.80;;;;;;4970562;28;20117;-61
2023/03/12 12:33:49;;;;;;;2.87;2.20;;;5.10;72.60;;;;;;4976188;28;20038;-63
2023/03/12 12:36:16;;;;;;;2.50;2.30;;;5.10;72.80;;;;;;4984854;28;20023;-50
2023/03/12 12:39:05;;;;;;;3.30;2.40;;;5.20;72.50;;;;;;4974622;28;20129;-48
2023/03/12 12:41:46;;;;;;;2.28;2.17;;;5.30;71.80;;;;;;4965543;28;20394;-61
2023/03/12 12:44:15;;;;;;;2.97;2.53;;;5.30;71.20;;;;;;4966158;28;20027;-62
2023/03/12 12:46:48;;;;;;;2.58;2.38;;;5.40;71.00;;;;;;4974017;28;20766;-62
2023/03/12 12:49:23;;;;;;;3.35;2.50;;;5.30;70.30;;;;;;4966671;28;20053;-61
2023/03/12 12:52:02;;;;;;;2.22;2.13;;;5.40;70.50;;;;;;4974246;28;20350;-61
2023/03/12 12:54:42;;;;;;;2.70;2.50;;;5.40;70.20;;;;;;4974024;28;20494;-61
2023/03/12 12:57:17;;;;;;;2.20;2.10;;;5.30;69.20;;;;;;4965178;28;20401;-62
2023/03/12 13:00:08;;;;;;;2.50;2.30;;;5.30;69.80;;;;;;4976334;28;20031;-62
2023/03/12 13:02:38;;;;;;;3.45;2.50;;;5.30;69.60;;;;;;4967993;28;20031;-62
2023/03/12 13:05:36;;;;;;;2.30;2.20;;;5.30;70.50;;;;;;4964419;28;20359;-62
2023/03/12 13:08:03;;;;;;;2.42;2.22;;;5.30;69.70;;;;;;4958331;28;20034;-62
2023/03/12 13:10:32;;;;;;;2.50;2.30;;;5.30;70.20;;;;;;4974108;28;20030;-58